Station info - map view · info · telemetry · weather · raw · status · beacons · messages · bulletins · browse · moving · my account
Callsign, ship name or locator: Clear       
It is possible to search using wildcards (*?) after a prefix. Example: OH*
APRS station TA1FL-6 - show graphs
Map loading...
Comment: ISTIKBAL GOKLERDEDIR
Mic-E message: En route
Location: 39°24.71' N 2°37.83' E - locator JM19HJ58PU - show map - static map
8.5 miles Southeast bearing 143° from Magaluf, Illes Balears, Balearic Islands, Spain [?]
10.6 miles Southeast bearing 129° from Santa Ponsa, Illes Balears, Balearic Islands, Spain
10.9 miles South bearing 186° from Palma, Illes Balears, Balearic Islands, Spain
12.5 miles Southeast bearing 148° from Calvià, Illes Balears, Balearic Islands, Spain
Last position: 2017-12-02 08:31:01 EST (14d 11h6m ago)
2017-12-02 14:31:01 CET local time at Magaluf, Spain [?]
Altitude: 34921 ft
Course: 88°
Speed: 555 MPH
Device: Yaesu: VX-8 (ht)
Last path: TA1FL-6>SY2TW1 via WIDE2-2,qAR,EA6VQ-15 (seriously-bad)
This station appears to be flying at high altitude and using digipeaters, which causes serious congestion in the APRS network. The tracker should be configured to only use digipeaters when at low altitude.
Positions stored: 67316
Other SSIDs: TA1FL TA1FL-1 TA1FL-10 TA1FL-11 TA1FL-12 TA1FL-13 TA1FL-14 TA1FL-15 TA1FL-2 TA1FL-3 TA1FL-4 TA1FL-7 TA1FL-8 TA1FL-9
Stations near current position of TA1FL-6 - show more
callsign distance last heard - EST      callsign distance last heard - EST
SANTA MARIA1.3 miles 213°2017-11-25 13:00:35 A JDJ 3AAAA -1.5 miles 227°2017-12-12 10:05:37
A J* R (JC2.0 miles 330°2017-11-28 23:39:42 ZERO A L INFINI2.2 miles 155°2017-11-28 04:24:59
RJY JN*\H^O F!2.8 miles 306°2017-11-28 01:14:33 PORTO COLOM3.4 miles 271°2017-12-11 23:58:10
2239159663.8 miles 312°2017-11-21 01:03:52 247316176 IT3.9 miles 297°2017-11-25 06:05:34
ELISE4.0 miles 282°2017-11-19 08:50:10 JN*\H_ O HB4.5 miles 112°2017-12-10 18:30:04
3374417384.6 miles 318°2017-12-16 02:28:56 NAIADE5.1 miles 33°2017-12-06 04:31:52
JDJ 3AAAA -5.1 miles 291°2017-12-15 04:51:54 246568404 NL5.3 miles 310°2017-11-21 06:40:54
GALICYA5.3 miles 102°2017-12-02 09:02:29 209622104 CY5.3 miles 339°2017-11-21 13:52:58
224195278 ES5.3 miles 288°2017-11-23 02:19:29 MANANA II5.4 miles 96°2017-11-20 07:40:25
CARO5.5 miles 316°2017-11-21 04:40:38 J N3AAAAAA *(Y5.5 miles 278°2017-12-12 03:05:36
Stations which heard TA1FL-6 directly on radio –
callsign pkts first heard - EST last heard longest (tx => rx) longest at - EST
OE6XTR 8 2017-12-02 03:29:38 2017-12-02 04:04:54 KN04LF > JN77VN 338.6 miles 315° 2017-12-02 03:29:38
S56OA-3 1 2017-12-02 04:11:31 2017-12-02 04:11:31 JN75BD > JN75BO 29.7 miles 357° 2017-12-02 04:11:31
IR3BT 2 2017-12-02 04:16:00 2017-12-02 04:20:06 JN65QF > JN56MD 128.9 miles 301° 2017-12-02 04:16:00
IR2AO 4 2017-12-02 04:24:40 2017-12-02 04:35:15 JN54XX > JN45PM 132.7 miles 288° 2017-12-02 04:24:40
IR2UBX-11 4 2017-12-02 04:25:25 2017-12-02 04:47:43 JN54WW > JN45MQ 146.1 miles 292° 2017-12-02 04:25:25
IR3AS 1 2017-12-02 04:24:44 2017-12-02 04:24:44 JN54XX > JN56QB 80.7 miles 339° 2017-12-02 04:24:44
YM3BUR 13 2017-12-01 06:14:12 2017-12-01 09:33:03 KN40SX > KN40NC 63.8 miles 199° 2017-12-01 09:29:58
IQ3QR-11 1 2017-12-02 04:12:06 2017-12-02 04:12:06 JN75BD > JN65AS 109.9 miles 294° 2017-12-02 04:12:06
TA1DX-3 3 2017-12-01 08:09:13 2017-12-02 02:30:45 KN41LH > KN40GX 30.4 miles 224° 2017-12-02 02:30:45
OE3XKR 2 2017-12-02 03:52:06 2017-12-02 03:59:13 JN84QS > JN88EN 267.0 miles 351° 2017-12-02 03:52:06
ED4ZAA-3 2 2017-12-02 07:51:33 2017-12-02 07:54:08 IN80GQ > IN80JI 24.4 miles 152° 2017-12-02 07:51:33
IZ6RDB 7 2017-12-02 03:45:58 2017-12-02 04:20:06 JN94DO > JN63SO 247.6 miles 255° 2017-12-02 03:45:58
OE6XLR-11 1 2017-12-02 04:07:52 2017-12-02 04:07:52 JN75IC > JN77OI 158.2 miles 8° 2017-12-02 04:07:52
LZ3SP 7 2017-12-02 02:54:46 2017-12-02 03:03:56 KN22WP > KN12QP 127.6 miles 270° 2017-12-02 02:54:46
LZ0VRC-2 4 2017-12-02 03:08:02 2017-12-02 03:13:10 KN23BI > KN13SF 28.9 miles 252° 2017-12-02 03:08:02
IQ3VQ 1 2017-12-02 04:28:21 2017-12-02 04:28:21 JN54QV > JN55MK 41.2 miles 342° 2017-12-02 04:28:21
IR3UHI 7 2017-12-02 04:08:25 2017-12-02 04:25:13 JN75HC > JN56UU 187.0 miles 311° 2017-12-02 04:08:25
LZ0BGM 1 2017-12-02 02:31:16 2017-12-02 02:31:16 KN41KH > KN12TE 278.5 miles 284° 2017-12-02 02:31:16
YO2LGP-2 4 2017-12-02 03:26:00 2017-12-02 03:30:06 KN04RC > KN05OS 115.1 miles 354° 2017-12-02 03:26:00
9A2CD-11 19 2017-12-02 03:34:11 2017-12-02 04:08:24 KN04CI > JN75XS 227.7 miles 297° 2017-12-02 03:34:11
EA4RKU 3 2017-12-02 07:49:00 2017-12-02 07:54:07 IN80GQ > IN80HM 13.1 miles 152° 2017-12-02 07:51:31
LZ0BGN 26 2017-12-02 02:47:05 2017-12-02 03:14:11 KN32KG > KN13ND 201.8 miles 289° 2017-12-02 02:47:05
9A1BTU-1 2 2017-12-02 03:47:01 2017-12-02 03:48:02 JN94CP > JN85UH 51.1 miles 333° 2017-12-02 03:47:01
IZ3LSV-1 7 2017-12-02 04:03:17 2017-12-02 04:16:01 JN74SX > JN65HP 148.9 miles 288° 2017-12-02 04:03:17
LZ1OCZ-1 10 2017-12-02 02:55:47 2017-12-02 03:06:30 KN22VR > KN23HJ 74.6 miles 311° 2017-12-02 02:55:47
LZ0DOE 8 2017-12-02 02:51:13 2017-12-02 03:15:13 KN32EL > KN12PN 157.2 miles 273° 2017-12-02 02:51:13
IZ4UFQ-10 1 2017-12-02 04:45:46 2017-12-02 04:45:46 JN65LD > JN54QL 89.7 miles 241° 2017-12-02 04:45:46
LZ1TNT 14 2017-12-02 02:34:20 2017-12-02 02:51:13 KN41FL > KN33GE 155.2 miles 320° 2017-12-02 02:34:20
LZ2AB 8 2017-12-02 02:35:22 2017-12-02 02:43:33 KN41EN > KN33RE 122.0 miles 338° 2017-12-02 02:35:22
9A7KXP-1 1 2017-12-02 04:01:59 2017-12-02 04:01:59 JN74VX > JN75XV 65.5 miles 7° 2017-12-02 04:01:59
LZ4NY-2 3 2017-12-02 03:09:35 2017-12-02 03:11:38 KN13WK > KN13QM 25.1 miles 286° 2017-12-02 03:09:35
LZ2AB-2 22 2017-12-01 08:10:48 2017-12-02 02:55:19 KN40GS > KN33RE 174.6 miles 342° 2017-12-01 08:10:48
LZ2AB-4 8 2017-12-02 02:35:22 2017-12-02 02:41:31 KN41EN > KN43DK 130.4 miles 359° 2017-12-02 02:35:22
IR2T 2 2017-12-02 04:35:18 2017-12-02 04:35:48 JN54BQ > JN56EB 97.8 miles 8° 2017-12-02 04:35:48
IR2Y 1 2017-12-02 04:28:14 2017-12-02 04:28:14 JN54QV > JN55EK 60.1 miles 309° 2017-12-02 04:28:14
9A7KXP-12 16 2017-12-02 03:59:11 2017-12-02 04:27:44 JN54RV > JN74PX 187.8 miles 86° 2017-12-02 04:27:44
IR4AZ 1 2017-12-02 04:04:21 2017-12-02 04:04:21 JN75QA > JN54TU 180.8 miles 268° 2017-12-02 04:04:21
YM1KD-1 1 2017-12-02 02:29:13 2017-12-02 02:29:13 KN41MF > KN41KA 16.7 miles 204° 2017-12-02 02:29:13
IQ2ER 1 2017-12-02 04:27:12 2017-12-02 04:27:12 JN54SV > JN45OT 126.4 miles 300° 2017-12-02 04:27:12
IK3ITI 11 2017-12-02 03:59:41 2017-12-02 04:19:35 JN84BV > JN65KS 167.0 miles 292° 2017-12-02 03:59:41
YO7MGH-3 13 2017-12-02 02:42:35 2017-12-02 03:24:28 KN31RX > KN24AC 228.1 miles 311° 2017-12-02 02:42:35
LZ2AB-6 11 2017-12-01 08:14:24 2017-12-02 02:50:15 KN40AU > KN32EP 152.0 miles 326° 2017-12-01 08:14:24
HG8PHM-2 1 2017-12-02 03:20:22 2017-12-02 03:20:22 KN13DW > KN06EJ 195.8 miles 331° 2017-12-02 03:20:22
S57AJJ-10 6 2017-12-02 03:59:10 2017-12-02 04:08:23 JN84CV > JN76CI 138.4 miles 317° 2017-12-02 03:59:10
IR2S 1 2017-12-02 04:27:43 2017-12-02 04:27:43 JN54RV > JN55DQ 78.0 miles 314° 2017-12-02 04:27:43
IR2CW 2 2017-12-02 04:36:32 2017-12-02 04:42:43 JN54CQ > JN45NE 60.0 miles 304° 2017-12-02 04:36:32
LZ0DAP-13 2 2017-12-02 03:01:56 2017-12-02 03:04:28 KN23HD > KN21IX 80.9 miles 176° 2017-12-02 03:04:28
YU0XPI 10 2017-12-02 03:03:27 2017-12-02 03:24:57 KN23IC > KN13ED 119.7 miles 273° 2017-12-02 03:03:27
ED4ZAF-3 14 2017-12-02 07:27:30 2017-12-02 07:54:37 IN80JQ > IN80FK 24.1 miles 224° 2017-12-02 07:53:36
YU0XUE 3 2017-12-02 03:30:35 2017-12-02 03:39:49 KN04JF > JN93WU 52.5 miles 240° 2017-12-02 03:30:35
HG8PKA-2 1 2017-12-02 03:25:29 2017-12-02 03:25:29 KN04SC > JN96LM 209.4 miles 325° 2017-12-02 03:25:29
LZ0DAD 13 2017-12-01 08:06:07 2017-12-02 02:47:36 KN40NT > KN32UT 155.6 miles 333° 2017-12-01 08:06:07
IW2GKZ-11 1 2017-12-02 04:35:47 2017-12-02 04:35:47 JN54BQ > JN45OQ 82.1 miles 327° 2017-12-02 04:35:47
TA1CR 7 2017-12-01 09:21:43 2017-12-01 09:31:28 KN41VA > KN41MD 40.2 miles 282° 2017-12-01 09:25:19
HA8LLH-2 1 2017-12-02 03:21:22 2017-12-02 03:21:22 KN13CX > KN06PP 189.6 miles 347° 2017-12-02 03:21:22
TA1FL-2 1 2017-12-01 08:08:12 2017-12-01 08:08:12 KN40KT > KN40KX 12.8 miles 357° 2017-12-01 08:08:12
IZ4WRK-1 2 2017-12-02 04:45:36 2017-12-02 04:46:15 JN65QF > JN54UM 92.9 miles 240° 2017-12-02 04:45:36
IQ3UD 11 2017-12-02 03:59:41 2017-12-02 04:13:28 JN84BV > JN66OB 160.1 miles 301° 2017-12-02 03:59:41
IQ3AZ 1 2017-12-02 04:10:24 2017-12-02 04:10:24 JN75DD > JN65QQ 58.2 miles 310° 2017-12-02 04:10:24
LZ0DAO 1 2017-12-01 08:15:56 2017-12-01 08:15:56 KN30WR > KN11TN 229.2 miles 286° 2017-12-01 08:15:56
9A1AYZ-10 21 2017-12-02 03:33:40 2017-12-02 04:07:52 KN04DH > JN85AU 231.7 miles 299° 2017-12-02 03:33:40
9A1DFG-10 4 2017-12-02 03:45:27 2017-12-02 04:00:12 JN94EO > JN85EL 116.8 miles 302° 2017-12-02 03:45:27
9A7KXP 12 2017-12-02 03:39:18 2017-12-02 04:04:48 JN94QL > JN85DT 178.2 miles 303° 2017-12-02 03:39:18
IR2UFW 1 2017-12-02 04:26:12 2017-12-02 04:26:12 JN54UW > JN45LI 134.3 miles 284° 2017-12-02 04:26:12
IZ3VIV-15 2 2017-12-02 04:20:10 2017-12-02 04:23:43 JN65IB > JN55PJ 71.9 miles 289° 2017-12-02 04:20:10
YO4ISC-10 8 2017-12-02 02:32:17 2017-12-02 02:39:28 KN41II > KN44HE 193.8 miles 359° 2017-12-02 02:32:17
YM2KQ 4 2017-12-01 09:20:42 2017-12-01 09:24:17 KN40RU > KN40VR 18.0 miles 119° 2017-12-01 09:20:42
9A7KXP-13 12 2017-12-02 03:43:56 2017-12-02 04:04:50 JN94HN > JN85AS 151.4 miles 304° 2017-12-02 03:43:56
TA1AST 1 2017-12-02 02:25:33 2017-12-02 02:25:33 KN40OU > KN41MB 16.9 miles 326° 2017-12-02 02:25:33
IR2UCL 4 2017-12-02 04:17:30 2017-12-02 04:41:27 JN65ND > JN45UP 170.0 miles 283° 2017-12-02 04:17:30
IV3GCH 3 2017-12-02 04:01:44 2017-12-02 04:03:16 JN74VX > JN65KX 156.4 miles 297° 2017-12-02 04:01:44
IU2GOH 1 2017-12-02 04:36:19 2017-12-02 04:36:19 JN44XP > JN55BL 56.5 miles 7° 2017-12-02 04:36:19
IV3GFJ-11 4 2017-12-02 04:02:15 2017-12-02 04:14:29 JN74UX > JN65ST 119.6 miles 300° 2017-12-02 04:02:15
TA1FL-12 126 2017-12-01 06:04:56 2017-12-02 02:26:36 KN40NX > KN40PV 11.2 miles 112° 2017-12-02 02:26:36
OE6XAR-1 2 2017-12-02 03:59:13 2017-12-02 04:01:17 JN84CV > JN77EG 184.5 miles 333° 2017-12-02 03:59:13
ED1YAF-3 1 2017-12-02 07:49:49 2017-12-02 07:49:49 IN80FN > IN70OM 64.0 miles 267° 2017-12-02 07:49:49
OE6XG-1 10 2017-12-02 03:41:52 2017-12-02 04:08:23 JN94LM > JN77OD 255.7 miles 316° 2017-12-02 03:41:52
9A6NTD-11 18 2017-12-02 03:29:36 2017-12-02 04:04:52 KN04LF > JN86JA 235.9 miles 303° 2017-12-02 03:29:36
TA1DF-1 1 2017-12-01 08:12:18 2017-12-01 08:12:18 KN40ET > KN41MA 38.8 miles 69° 2017-12-01 08:12:18
9A5CAN-11 4 2017-12-02 03:43:54 2017-12-02 03:47:30 JN94HN > JN85TE 65.6 miles 311° 2017-12-02 03:43:54
OE8NDR 1 2017-12-02 03:48:03 2017-12-02 03:48:03 JN94AP > JN76IP 209.6 miles 312° 2017-12-02 03:48:03
S56CKU-1 2 2017-12-02 04:06:00 2017-12-02 04:12:29 JN75RA > JN75CW 87.5 miles 319° 2017-12-02 04:06:00
HA8LHT-1 11 2017-12-02 03:32:07 2017-12-02 03:52:36 KN04GG > JN95DU 154.9 miles 315° 2017-12-02 03:32:07
IR2UFH 4 2017-12-02 04:27:43 2017-12-02 04:41:27 JN54RV > JN45KG 128.0 miles 282° 2017-12-02 04:27:43
IR1BP 2 2017-12-02 04:35:49 2017-12-02 04:41:29 JN54BQ > JN44BJ 98.0 miles 258° 2017-12-02 04:35:49
9A1AYZ-11 7 2017-12-02 03:59:10 2017-12-02 04:08:23 JN84CV > JN75TR 64.5 miles 334° 2017-12-02 03:59:10
9A1ARS-10 12 2017-12-02 03:54:37 2017-12-02 04:10:55 JN84LT > JN75GF 119.0 miles 284° 2017-12-02 03:54:37
TA2LTM 8 2017-12-01 08:03:25 2017-12-02 02:29:44 KN41UA > KN40MX 33.3 miles 263° 2017-12-01 09:26:51
S55ML-10 3 2017-12-02 04:06:45 2017-12-02 04:13:23 JN75LB > JN75CS 62.3 miles 323° 2017-12-02 04:06:45
TA2VR-10 3 2017-12-01 09:23:16 2017-12-01 09:24:48 KN40UW > KN50ES 38.8 miles 105° 2017-12-01 09:23:16
YU0XRS 2 2017-12-02 03:09:37 2017-12-02 03:12:10 KN13WK > KN13KE 54.7 miles 251° 2017-12-02 03:09:37
IR2UEI 1 2017-12-02 04:41:27 2017-12-02 04:41:27 JN44SR > JN45JL 62.9 miles 325° 2017-12-02 04:41:27
TA1AJJ-10 11 2017-12-01 08:06:05 2017-12-02 02:31:47 KN40SX > KN41JC 38.7 miles 283° 2017-12-01 09:29:55
9A4OS-12 1 2017-12-02 03:59:44 2017-12-02 03:59:44 JN94KM > JN74PC 179.9 miles 262° 2017-12-02 03:59:44
IZ2QYZ-10 2 2017-12-02 04:35:51 2017-12-02 04:36:28 JN54BQ > JN45NJ 66.7 miles 318° 2017-12-02 04:35:51

Only position packets which were originated by the station are shown here. The range statistics show some extra long hops, because some digipeaters do not correctly add themselves to the digipeater path. Please check the raw packets.
About this site
This page shows real-time information collected from the Automatic Position Reporting System Internet network (APRS-IS). APRS is used by amateur (ham) radio operators to transmit real-time position information, weather data, telemetry and messages over the radio. A vehicle equipped with a GPS receiver, a VHF transmitter or HF transceiver and a small computer device called a tracker transmits it's location, speed and course in a small data packet, which is then received by a nearby iGate receiving site which forwards the packet on the Internet. Systems connected to the Internet can send information on the APRS-IS without a radio transmitter, or collect and display information transmitted anywhere in the world.
FAQ · Blog · Discussion group · Linking to aprs.fi · AIS sites · Service status · Database statistics · Advertising on aprs.fi · Technical details · API · Change log · Planned changes · Credits and thanks · Terms Of Service · iPhone/iPad APRS